sensor_id;sensor_type;location;lat;lon;timestamp;pressure;altitude;pressure_sealevel;temperature;humidity
8286;BME280;4181;43.416;24.598;2022-07-29T00:00:05;99809.47;;;25.55;100.00
8286;BME280;4181;43.416;24.598;2022-07-29T00:02:30;99806.94;;;25.50;100.00
8286;BME280;4181;43.416;24.598;2022-07-29T00:04:57;99805.03;;;25.54;100.00
8286;BME280;4181;43.416;24.598;2022-07-29T00:07:25;99807.84;;;25.54;100.00
8286;BME280;4181;43.416;24.598;2022-07-29T00:10:00;99802.78;;;25.44;100.00
8286;BME280;4181;43.416;24.598;2022-07-29T00:12:26;99801.16;;;25.43;100.00
8286;BME280;4181;43.416;24.598;2022-07-29T00:14:53;99798.22;;;24.96;100.00
8286;BME280;4181;43.416;24.598;2022-07-29T00:17:19;99763.22;;;24.87;100.00
8286;BME280;4181;43.416;24.598;2022-07-29T00:19:44;99753.84;;;24.79;100.00
8286;BME280;4181;43.416;24.598;2022-07-29T00:22:10;99731.88;;;24.78;100.00
8286;BME280;4181;43.416;24.598;2022-07-29T00:24:35;99753.34;;;24.89;100.00
8286;BME280;4181;43.416;24.598;2022-07-29T00:27:01;99739.63;;;24.84;100.00
8286;BME280;4181;43.416;24.598;2022-07-29T00:29:26;99750.81;;;24.84;100.00
8286;BME280;4181;43.416;24.598;2022-07-29T00:31:53;99738.09;;;24.87;100.00
8286;BME280;4181;43.416;24.598;2022-07-29T00:34:20;99730.25;;;25.05;100.00
8286;BME280;4181;43.416;24.598;2022-07-29T00:37:06;99760.03;;;25.28;100.00
8286;BME280;4181;43.416;24.598;2022-07-29T00:39:31;99782.06;;;25.45;100.00
8286;BME280;4181;43.416;24.598;2022-07-29T00:41:57;99788.75;;;25.56;100.00
8286;BME280;4181;43.416;24.598;2022-07-29T00:44:22;99791.47;;;25.68;100.00
8286;BME280;4181;43.416;24.598;2022-07-29T00:46:47;99801.28;;;25.78;100.00
8286;BME280;4181;43.416;24.598;2022-07-29T00:49:13;99803.44;;;25.84;100.00
8286;BME280;4181;43.416;24.598;2022-07-29T00:51:39;99804.00;;;25.90;100.00
8286;BME280;4181;43.416;24.598;2022-07-29T00:54:05;99802.81;;;25.91;100.00
8286;BME280;4181;43.416;24.598;2022-07-29T00:56:31;99806.59;;;25.83;100.00
8286;BME280;4181;43.416;24.598;2022-07-29T00:58:58;99801.09;;;25.55;100.00
8286;BME280;4181;43.416;24.598;2022-07-29T01:01:30;99796.19;;;25.37;100.00
8286;BME280;4181;43.416;24.598;2022-07-29T01:04:01;99780.81;;;25.31;100.00
8286;BME280;4181;43.416;24.598;2022-07-29T01:06:26;99780.22;;;25.37;100.00
8286;BME280;4181;43.416;24.598;2022-07-29T01:08:52;99771.19;;;25.28;100.00
8286;BME280;4181;43.416;24.598;2022-07-29T01:11:19;99782.06;;;25.45;100.00
8286;BME280;4181;43.416;24.598;2022-07-29T01:13:46;99768.38;;;25.40;100.00
8286;BME280;4181;43.416;24.598;2022-07-29T01:16:30;99784.06;;;25.33;100.00
8286;BME280;4181;43.416;24.598;2022-07-29T01:19:04;99780.09;;;25.18;100.00
8286;BME280;4181;43.416;24.598;2022-07-29T01:21:49;99784.66;;;25.11;100.00
8286;BME280;4181;43.416;24.598;2022-07-29T01:29:58;99792.97;;;25.66;100.00
8286;BME280;4181;43.416;24.598;2022-07-29T01:32:29;99803.97;;;25.74;100.00
8286;BME280;4181;43.416;24.598;2022-07-29T01:35:22;99820.13;;;25.81;100.00
8286;BME280;4181;43.416;24.598;2022-07-29T01:37:55;99817.75;;;25.67;100.00
8286;BME280;4181;43.416;24.598;2022-07-29T01:40:28;99826.31;;;25.59;100.00
8286;BME280;4181;43.416;24.598;2022-07-29T01:42:57;99830.28;;;25.58;100.00
8286;BME280;4181;43.416;24.598;2022-07-29T01:45:38;99831.13;;;25.58;100.00
8286;BME280;4181;43.416;24.598;2022-07-29T01:48:19;99821.06;;;25.42;100.00
8286;BME280;4181;43.416;24.598;2022-07-29T01:50:49;99829.63;;;25.49;100.00
8286;BME280;4181;43.416;24.598;2022-07-29T01:53:28;99816.38;;;25.46;100.00
8286;BME280;4181;43.416;24.598;2022-07-29T01:55:56;99827.47;;;25.42;100.00
8286;BME280;4181;43.416;24.598;2022-07-29T01:58:24;99808.97;;;25.38;100.00
8286;BME280;4181;43.416;24.598;2022-07-29T02:00:52;99816.53;;;25.37;100.00
8286;BME280;4181;43.416;24.598;2022-07-29T02:03:20;99803.25;;;25.34;100.00
8286;BME280;4181;43.416;24.598;2022-07-29T02:05:47;99810.66;;;25.27;100.00
8286;BME280;4181;43.416;24.598;2022-07-29T02:08:15;99819.63;;;25.20;100.00
8286;BME280;4181;43.416;24.598;2022-07-29T02:10:42;99809.22;;;25.05;100.00
8286;BME280;4181;43.416;24.598;2022-07-29T02:13:09;99806.63;;;24.84;100.00
8286;BME280;4181;43.416;24.598;2022-07-29T02:15:36;99803.03;;;24.72;100.00
8286;BME280;4181;43.416;24.598;2022-07-29T02:18:22;99786.03;;;24.77;100.00
8286;BME280;4181;43.416;24.598;2022-07-29T02:20:52;99796.56;;;24.95;100.00
8286;BME280;4181;43.416;24.598;2022-07-29T02:23:21;99792.53;;;24.93;100.00
8286;BME280;4181;43.416;24.598;2022-07-29T02:25:53;99804.19;;;24.83;100.00
8286;BME280;4181;43.416;24.598;2022-07-29T02:28:22;99784.69;;;24.59;100.00
8286;BME280;4181;43.416;24.598;2022-07-29T02:30:52;99782.81;;;24.75;100.00
8286;BME280;4181;43.416;24.598;2022-07-29T02:33:19;99781.88;;;24.83;100.00
8286;BME280;4181;43.416;24.598;2022-07-29T02:35:46;99774.00;;;24.73;100.00
8286;BME280;4181;43.416;24.598;2022-07-29T02:38:15;99775.16;;;24.60;100.00
8286;BME280;4181;43.416;24.598;2022-07-29T02:41:09;99768.66;;;24.68;100.00
8286;BME280;4181;43.416;24.598;2022-07-29T02:43:37;99781.09;;;24.58;100.00
8286;BME280;4181;43.416;24.598;2022-07-29T02:46:12;99755.78;;;24.39;100.00
8286;BME280;4181;43.416;24.598;2022-07-29T02:48:41;99766.16;;;24.27;100.00
8286;BME280;4181;43.416;24.598;2022-07-29T02:51:19;99756.84;;;24.35;100.00
8286;BME280;4181;43.416;24.598;2022-07-29T02:53:49;99761.00;;;24.53;100.00
8286;BME280;4181;43.416;24.598;2022-07-29T02:56:18;99769.94;;;24.58;100.00
8286;BME280;4181;43.416;24.598;2022-07-29T02:58:57;99777.28;;;24.51;100.00
8286;BME280;4181;43.416;24.598;2022-07-29T03:01:25;99774.00;;;24.49;100.00
8286;BME280;4181;43.416;24.598;2022-07-29T03:03:54;99770.44;;;24.48;100.00
8286;BME280;4181;43.416;24.598;2022-07-29T03:06:25;99793.88;;;24.59;100.00
8286;BME280;4181;43.416;24.598;2022-07-29T03:08:53;99787.25;;;24.52;100.00
8286;BME280;4181;43.416;24.598;2022-07-29T03:11:20;99788.41;;;24.51;100.00
8286;BME280;4181;43.416;24.598;2022-07-29T03:13:46;99782.75;;;24.35;100.00
8286;BME280;4181;43.416;24.598;2022-07-29T03:16:12;99775.09;;;24.20;100.00
8286;BME280;4181;43.416;24.598;2022-07-29T03:18:38;99751.06;;;24.04;100.00
8286;BME280;4181;43.416;24.598;2022-07-29T03:21:04;99745.25;;;23.97;100.00
8286;BME280;4181;43.416;24.598;2022-07-29T03:23:30;99737.38;;;23.87;100.00
8286;BME280;4181;43.416;24.598;2022-07-29T03:25:55;99728.53;;;23.85;100.00
8286;BME280;4181;43.416;24.598;2022-07-29T03:28:22;99707.28;;;23.80;100.00
8286;BME280;4181;43.416;24.598;2022-07-29T03:30:48;99703.09;;;23.62;100.00
8286;BME280;4181;43.416;24.598;2022-07-29T03:33:14;99687.56;;;23.73;100.00
8286;BME280;4181;43.416;24.598;2022-07-29T03:35:40;99695.81;;;23.82;100.00
8286;BME280;4181;43.416;24.598;2022-07-29T03:38:07;99689.41;;;23.93;100.00
8286;BME280;4181;43.416;24.598;2022-07-29T03:40:43;99713.31;;;24.18;100.00
8286;BME280;4181;43.416;24.598;2022-07-29T03:43:11;99728.50;;;24.33;100.00
8286;BME280;4181;43.416;24.598;2022-07-29T03:45:38;99728.25;;;24.38;100.00
8286;BME280;4181;43.416;24.598;2022-07-29T03:48:08;99764.00;;;24.60;100.00
8286;BME280;4181;43.416;24.598;2022-07-29T03:50:35;99751.03;;;24.40;100.00
8286;BME280;4181;43.416;24.598;2022-07-29T03:53:02;99750.94;;;24.36;100.00
8286;BME280;4181;43.416;24.598;2022-07-29T03:55:30;99737.34;;;24.35;100.00
8286;BME280;4181;43.416;24.598;2022-07-29T03:57:58;99728.84;;;24.43;100.00
8286;BME280;4181;43.416;24.598;2022-07-29T04:00:25;99761.22;;;24.60;100.00
8286;BME280;4181;43.416;24.598;2022-07-29T04:02:52;99755.03;;;24.66;100.00
8286;BME280;4181;43.416;24.598;2022-07-29T04:05:18;99784.09;;;25.05;100.00
8286;BME280;4181;43.416;24.598;2022-07-29T04:07:48;99800.09;;;25.20;100.00
8286;BME280;4181;43.416;24.598;2022-07-29T04:10:14;99814.34;;;25.31;100.00
8286;BME280;4181;43.416;24.598;2022-07-29T04:12:48;99825.03;;;25.41;100.00
8286;BME280;4181;43.416;24.598;2022-07-29T04:15:14;99823.44;;;25.71;100.00
8286;BME280;4181;43.416;24.598;2022-07-29T04:17:40;99823.47;;;25.86;100.00
8286;BME280;4181;43.416;24.598;2022-07-29T04:20:06;99830.41;;;25.92;100.00
8286;BME280;4181;43.416;24.598;2022-07-29T04:22:31;99837.63;;;25.93;100.00
8286;BME280;4181;43.416;24.598;2022-07-29T04:24:57;99829.53;;;26.04;100.00
8286;BME280;4181;43.416;24.598;2022-07-29T04:27:22;99847.66;;;26.26;100.00
8286;BME280;4181;43.416;24.598;2022-07-29T04:29:48;99855.78;;;26.31;100.00
8286;BME280;4181;43.416;24.598;2022-07-29T04:32:14;99841.34;;;26.29;100.00
8286;BME280;4181;43.416;24.598;2022-07-29T04:34:39;99852.84;;;26.58;100.00
8286;BME280;4181;43.416;24.598;2022-07-29T04:37:05;99861.53;;;26.69;100.00
8286;BME280;4181;43.416;24.598;2022-07-29T04:39:30;99870.59;;;26.81;100.00
8286;BME280;4181;43.416;24.598;2022-07-29T04:41:56;99877.63;;;26.91;100.00
8286;BME280;4181;43.416;24.598;2022-07-29T04:44:21;99872.19;;;26.98;100.00
8286;BME280;4181;43.416;24.598;2022-07-29T04:46:47;99882.22;;;27.18;100.00
8286;BME280;4181;43.416;24.598;2022-07-29T04:49:13;99888.53;;;27.30;100.00
8286;BME280;4181;43.416;24.598;2022-07-29T04:51:38;99895.25;;;27.45;100.00
8286;BME280;4181;43.416;24.598;2022-07-29T04:54:04;99899.31;;;27.28;100.00
8286;BME280;4181;43.416;24.598;2022-07-29T04:56:29;99890.91;;;27.13;100.00
8286;BME280;4181;43.416;24.598;2022-07-29T04:58:55;99870.06;;;27.10;100.00
8286;BME280;4181;43.416;24.598;2022-07-29T05:01:20;99887.28;;;27.28;100.00
8286;BME280;4181;43.416;24.598;2022-07-29T05:03:46;99896.94;;;27.50;100.00
8286;BME280;4181;43.416;24.598;2022-07-29T05:06:12;99904.81;;;27.63;100.00
8286;BME280;4181;43.416;24.598;2022-07-29T05:08:37;99908.84;;;27.85;100.00
8286;BME280;4181;43.416;24.598;2022-07-29T05:11:03;99917.50;;;27.95;100.00
8286;BME280;4181;43.416;24.598;2022-07-29T05:13:30;99916.22;;;27.93;100.00
8286;BME280;4181;43.416;24.598;2022-07-29T05:15:55;99929.19;;;28.01;100.00
8286;BME280;4181;43.416;24.598;2022-07-29T05:18:24;99928.25;;;28.12;100.00
8286;BME280;4181;43.416;24.598;2022-07-29T05:20:49;99940.00;;;28.21;100.00
8286;BME280;4181;43.416;24.598;2022-07-29T05:23:15;99943.19;;;28.42;100.00
8286;BME280;4181;43.416;24.598;2022-07-29T05:25:40;99933.13;;;28.61;100.00
8286;BME280;4181;43.416;24.598;2022-07-29T05:28:06;99945.25;;;28.91;100.00
8286;BME280;4181;43.416;24.598;2022-07-29T05:30:32;99956.22;;;29.03;100.00
8286;BME280;4181;43.416;24.598;2022-07-29T05:32:57;99970.66;;;29.24;100.00
8286;BME280;4181;43.416;24.598;2022-07-29T05:35:23;99960.78;;;29.37;100.00
8286;BME280;4181;43.416;24.598;2022-07-29T05:37:48;99966.69;;;29.58;100.00
8286;BME280;4181;43.416;24.598;2022-07-29T05:40:14;99979.41;;;29.78;100.00
8286;BME280;4181;43.416;24.598;2022-07-29T05:42:39;99980.72;;;29.84;100.00
8286;BME280;4181;43.416;24.598;2022-07-29T05:45:05;99989.56;;;29.86;100.00
8286;BME280;4181;43.416;24.598;2022-07-29T05:47:31;99992.84;;;29.62;100.00
8286;BME280;4181;43.416;24.598;2022-07-29T05:49:56;99993.19;;;29.57;100.00
8286;BME280;4181;43.416;24.598;2022-07-29T05:52:22;99992.31;;;29.79;100.00
8286;BME280;4181;43.416;24.598;2022-07-29T05:54:48;99993.25;;;29.90;100.00
8286;BME280;4181;43.416;24.598;2022-07-29T05:57:18;99997.06;;;30.08;100.00
8286;BME280;4181;43.416;24.598;2022-07-29T05:59:47;99994.41;;;30.22;100.00
8286;BME280;4181;43.416;24.598;2022-07-29T06:02:16;100002.97;;;30.29;100.00
8286;BME280;4181;43.416;24.598;2022-07-29T06:04:42;99993.53;;;30.51;100.00
8286;BME280;4181;43.416;24.598;2022-07-29T06:07:08;100000.81;;;30.56;100.00
8286;BME280;4181;43.416;24.598;2022-07-29T06:09:34;100013.84;;;30.71;100.00
8286;BME280;4181;43.416;24.598;2022-07-29T06:12:00;100007.47;;;30.77;100.00
8286;BME280;4181;43.416;24.598;2022-07-29T06:14:26;100013.59;;;30.86;100.00
8286;BME280;4181;43.416;24.598;2022-07-29T06:16:56;100010.94;;;31.04;100.00
8286;BME280;4181;43.416;24.598;2022-07-29T06:19:21;100011.88;;;31.26;100.00
8286;BME280;4181;43.416;24.598;2022-07-29T06:21:47;100012.81;;;31.40;100.00
8286;BME280;4181;43.416;24.598;2022-07-29T06:24:14;100017.16;;;31.31;100.00
8286;BME280;4181;43.416;24.598;2022-07-29T06:26:41;100019.88;;;31.17;100.00
8286;BME280;4181;43.416;24.598;2022-07-29T06:29:07;100023.91;;;31.16;100.00
8286;BME280;4181;43.416;24.598;2022-07-29T06:31:36;100025.50;;;31.17;100.00
8286;BME280;4181;43.416;24.598;2022-07-29T06:34:01;100017.34;;;31.05;100.00
8286;BME280;4181;43.416;24.598;2022-07-29T06:36:27;100022.31;;;31.22;100.00
8286;BME280;4181;43.416;24.598;2022-07-29T06:38:52;100011.09;;;31.29;100.00
8286;BME280;4181;43.416;24.598;2022-07-29T06:41:18;100018.63;;;31.72;100.00
8286;BME280;4181;43.416;24.598;2022-07-29T06:43:45;100019.50;;;31.83;100.00
8286;BME280;4181;43.416;24.598;2022-07-29T06:46:13;100016.38;;;32.02;100.00
8286;BME280;4181;43.416;24.598;2022-07-29T06:48:39;100014.03;;;32.29;100.00
8286;BME280;4181;43.416;24.598;2022-07-29T06:51:07;100009.66;;;32.49;100.00
8286;BME280;4181;43.416;24.598;2022-07-29T06:53:34;100010.09;;;32.72;100.00
8286;BME280;4181;43.416;24.598;2022-07-29T06:56:00;99995.97;;;32.75;100.00
8286;BME280;4181;43.416;24.598;2022-07-29T06:58:27;100008.47;;;32.85;100.00
8286;BME280;4181;43.416;24.598;2022-07-29T07:00:53;100008.47;;;32.88;100.00
8286;BME280;4181;43.416;24.598;2022-07-29T07:03:19;100002.03;;;33.09;100.00
8286;BME280;4181;43.416;24.598;2022-07-29T07:05:45;100002.00;;;33.44;100.00
8286;BME280;4181;43.416;24.598;2022-07-29T07:08:12;100007.53;;;33.83;100.00
8286;BME280;4181;43.416;24.598;2022-07-29T07:10:38;100011.56;;;33.92;100.00
8286;BME280;4181;43.416;24.598;2022-07-29T07:13:04;99999.34;;;34.13;100.00
8286;BME280;4181;43.416;24.598;2022-07-29T07:15:30;99996.00;;;34.28;100.00
8286;BME280;4181;43.416;24.598;2022-07-29T07:17:56;99997.50;;;34.54;100.00
8286;BME280;4181;43.416;24.598;2022-07-29T07:20:23;99983.63;;;34.70;100.00
8286;BME280;4181;43.416;24.598;2022-07-29T07:22:48;99986.28;;;34.88;100.00
8286;BME280;4181;43.416;24.598;2022-07-29T07:25:14;99970.81;;;34.99;100.00
8286;BME280;4181;43.416;24.598;2022-07-29T07:27:39;99986.78;;;35.27;100.00
8286;BME280;4181;43.416;24.598;2022-07-29T07:30:06;100001.63;;;35.41;100.00
8286;BME280;4181;43.416;24.598;2022-07-29T07:32:35;100004.00;;;35.46;100.00
8286;BME280;4181;43.416;24.598;2022-07-29T07:35:05;100000.41;;;35.42;100.00
8286;BME280;4181;43.416;24.598;2022-07-29T07:37:31;100014.50;;;35.05;100.00
8286;BME280;4181;43.416;24.598;2022-07-29T07:39:57;100007.19;;;34.60;100.00
8286;BME280;4181;43.416;24.598;2022-07-29T07:42:23;100009.53;;;33.89;100.00
8286;BME280;4181;43.416;24.598;2022-07-29T07:44:48;100013.13;;;34.07;100.00
8286;BME280;4181;43.416;24.598;2022-07-29T07:47:15;100011.44;;;34.17;100.00
8286;BME280;4181;43.416;24.598;2022-07-29T07:49:48;100007.88;;;34.06;100.00
8286;BME280;4181;43.416;24.598;2022-07-29T07:52:15;100013.22;;;33.83;100.00
8286;BME280;4181;43.416;24.598;2022-07-29T07:54:41;100011.66;;;33.61;100.00
8286;BME280;4181;43.416;24.598;2022-07-29T07:57:08;100016.13;;;33.55;100.00
8286;BME280;4181;43.416;24.598;2022-07-29T07:59:33;100015.34;;;33.22;100.00
8286;BME280;4181;43.416;24.598;2022-07-29T08:01:59;100015.38;;;33.08;100.00
8286;BME280;4181;43.416;24.598;2022-07-29T08:04:26;100008.88;;;32.83;100.00
8286;BME280;4181;43.416;24.598;2022-07-29T08:06:52;100025.44;;;32.74;100.00
8286;BME280;4181;43.416;24.598;2022-07-29T08:09:20;100021.78;;;32.56;100.00
8286;BME280;4181;43.416;24.598;2022-07-29T08:11:46;100026.16;;;32.36;100.00
8286;BME280;4181;43.416;24.598;2022-07-29T08:14:11;100026.94;;;32.33;100.00
8286;BME280;4181;43.416;24.598;2022-07-29T08:16:37;100019.69;;;32.29;100.00
8286;BME280;4181;43.416;24.598;2022-07-29T08:19:02;100028.22;;;32.39;100.00
8286;BME280;4181;43.416;24.598;2022-07-29T08:21:28;100018.47;;;32.26;100.00
8286;BME280;4181;43.416;24.598;2022-07-29T08:23:53;100014.84;;;32.26;100.00
8286;BME280;4181;43.416;24.598;2022-07-29T08:26:40;100014.03;;;32.32;100.00
8286;BME280;4181;43.416;24.598;2022-07-29T08:29:06;100005.66;;;32.50;100.00
8286;BME280;4181;43.416;24.598;2022-07-29T08:31:31;100016.94;;;32.85;100.00
8286;BME280;4181;43.416;24.598;2022-07-29T08:33:56;100005.28;;;33.07;100.00
8286;BME280;4181;43.416;24.598;2022-07-29T08:36:25;100007.66;;;33.33;100.00
8286;BME280;4181;43.416;24.598;2022-07-29T08:38:52;99999.53;;;33.60;100.00
8286;BME280;4181;43.416;24.598;2022-07-29T08:41:21;100000.25;;;33.92;100.00
8286;BME280;4181;43.416;24.598;2022-07-29T08:43:48;100009.84;;;34.16;100.00
8286;BME280;4181;43.416;24.598;2022-07-29T08:46:14;99981.47;;;34.23;100.00
8286;BME280;4181;43.416;24.598;2022-07-29T08:48:41;99989.53;;;34.28;100.00
8286;BME280;4181;43.416;24.598;2022-07-29T08:51:07;99991.09;;;34.43;100.00
8286;BME280;4181;43.416;24.598;2022-07-29T08:53:33;99984.09;;;34.58;100.00
8286;BME280;4181;43.416;24.598;2022-07-29T08:55:59;99973.09;;;34.67;100.00
8286;BME280;4181;43.416;24.598;2022-07-29T08:58:31;99979.91;;;34.77;100.00
8286;BME280;4181;43.416;24.598;2022-07-29T09:00:57;99983.00;;;34.41;100.00
8286;BME280;4181;43.416;24.598;2022-07-29T09:03:30;99989.09;;;34.36;100.00
8286;BME280;4181;43.416;24.598;2022-07-29T09:05:58;99971.13;;;34.61;100.00
8286;BME280;4181;43.416;24.598;2022-07-29T09:08:23;99955.66;;;34.69;100.00
8286;BME280;4181;43.416;24.598;2022-07-29T09:10:50;99980.38;;;34.72;100.00
8286;BME280;4181;43.416;24.598;2022-07-29T09:13:16;99965.38;;;34.71;100.00
8286;BME280;4181;43.416;24.598;2022-07-29T09:15:42;99963.34;;;34.72;100.00
8286;BME280;4181;43.416;24.598;2022-07-29T09:18:07;99968.31;;;34.57;100.00
8286;BME280;4181;43.416;24.598;2022-07-29T09:20:33;99961.84;;;34.60;100.00
8286;BME280;4181;43.416;24.598;2022-07-29T09:23:17;99964.78;;;34.94;100.00
8286;BME280;4181;43.416;24.598;2022-07-29T09:25:42;99960.59;;;35.09;100.00
8286;BME280;4181;43.416;24.598;2022-07-29T09:28:10;99965.31;;;35.22;100.00
8286;BME280;4181;43.416;24.598;2022-07-29T09:30:50;99956.41;;;35.20;100.00
8286;BME280;4181;43.416;24.598;2022-07-29T09:33:16;99944.59;;;35.25;100.00
8286;BME280;4181;43.416;24.598;2022-07-29T09:35:42;99951.56;;;35.21;100.00
8286;BME280;4181;43.416;24.598;2022-07-29T09:38:13;99939.28;;;35.31;100.00
8286;BME280;4181;43.416;24.598;2022-07-29T09:40:39;99947.41;;;34.88;100.00
8286;BME280;4181;43.416;24.598;2022-07-29T09:43:12;99956.16;;;34.60;100.00
8286;BME280;4181;43.416;24.598;2022-07-29T09:45:38;99940.75;;;34.61;100.00
8286;BME280;4181;43.416;24.598;2022-07-29T09:48:24;99947.56;;;34.67;100.00
8286;BME280;4181;43.416;24.598;2022-07-29T09:50:50;99941.69;;;34.95;100.00
8286;BME280;4181;43.416;24.598;2022-07-29T09:53:37;99931.66;;;35.24;100.00
8286;BME280;4181;43.416;24.598;2022-07-29T09:56:04;99926.06;;;35.54;100.00
8286;BME280;4181;43.416;24.598;2022-07-29T09:58:30;99932.59;;;35.82;100.00
8286;BME280;4181;43.416;24.598;2022-07-29T10:00:59;99932.19;;;35.83;100.00
8286;BME280;4181;43.416;24.598;2022-07-29T10:03:25;99934.75;;;35.70;100.00
8286;BME280;4181;43.416;24.598;2022-07-29T10:06:09;99910.41;;;36.03;100.00
8286;BME280;4181;43.416;24.598;2022-07-29T10:08:36;99908.59;;;36.43;100.00
8286;BME280;4181;43.416;24.598;2022-07-29T10:11:16;99899.97;;;36.73;100.00
8286;BME280;4181;43.416;24.598;2022-07-29T10:13:44;99904.56;;;36.90;100.00
8286;BME280;4181;43.416;24.598;2022-07-29T10:16:11;99896.25;;;36.99;100.00
8286;BME280;4181;43.416;24.598;2022-07-29T10:18:38;99883.84;;;37.09;100.00
8286;BME280;4181;43.416;24.598;2022-07-29T10:21:04;99892.78;;;37.11;100.00
8286;BME280;4181;43.416;24.598;2022-07-29T10:23:30;99888.53;;;37.19;100.00
8286;BME280;4181;43.416;24.598;2022-07-29T10:25:56;99895.25;;;37.09;100.00
8286;BME280;4181;43.416;24.598;2022-07-29T10:28:21;99885.63;;;37.03;100.00
8286;BME280;4181;43.416;24.598;2022-07-29T10:30:50;99887.28;;;36.77;100.00
8286;BME280;4181;43.416;24.598;2022-07-29T10:41:34;99867.97;;;37.12;100.00
8286;BME280;4181;43.416;24.598;2022-07-29T10:44:22;99874.56;;;37.28;100.00
8286;BME280;4181;43.416;24.598;2022-07-29T10:46:49;99858.31;;;37.29;100.00
8286;BME280;4181;43.416;24.598;2022-07-29T10:49:24;99857.63;;;37.41;100.00
8286;BME280;4181;43.416;24.598;2022-07-29T10:57:26;99846.28;;;37.18;100.00
8286;BME280;4181;43.416;24.598;2022-07-29T11:05:14;99839.44;;;37.15;100.00
8286;BME280;4181;43.416;24.598;2022-07-29T11:10:35;99827.94;;;37.22;100.00
8286;BME280;4181;43.416;24.598;2022-07-29T11:13:00;99824.34;;;37.38;100.00
8286;BME280;4181;43.416;24.598;2022-07-29T11:15:26;99834.72;;;37.28;100.00
8286;BME280;4181;43.416;24.598;2022-07-29T11:22:59;99819.84;;;37.40;100.00
8286;BME280;4181;43.416;24.598;2022-07-29T11:25:25;99819.97;;;37.33;100.00
8286;BME280;4181;43.416;24.598;2022-07-29T11:27:53;99810.91;;;36.79;100.00
8286;BME280;4181;43.416;24.598;2022-07-29T11:30:19;99836.44;;;36.60;100.00
8286;BME280;4181;43.416;24.598;2022-07-29T11:32:45;99832.34;;;35.88;100.00
8286;BME280;4181;43.416;24.598;2022-07-29T11:35:13;99848.91;;;35.63;100.00
8286;BME280;4181;43.416;24.598;2022-07-29T11:37:39;99849.38;;;35.58;100.00
8286;BME280;4181;43.416;24.598;2022-07-29T11:42:36;99846.53;;;34.91;100.00
8286;BME280;4181;43.416;24.598;2022-07-29T11:45:08;99828.59;;;35.01;100.00
8286;BME280;4181;43.416;24.598;2022-07-29T11:47:48;99824.25;;;35.56;100.00
8286;BME280;4181;43.416;24.598;2022-07-29T11:52:54;99832.16;;;35.42;100.00
8286;BME280;4181;43.416;24.598;2022-07-29T11:55:21;99823.72;;;35.38;100.00
8286;BME280;4181;43.416;24.598;2022-07-29T11:57:55;99822.94;;;35.64;100.00
8286;BME280;4181;43.416;24.598;2022-07-29T12:00:41;99820.06;;;35.95;100.00
8286;BME280;4181;43.416;24.598;2022-07-29T12:03:10;99812.66;;;36.01;100.00
8286;BME280;4181;43.416;24.598;2022-07-29T12:05:41;99816.84;;;35.93;100.00
8286;BME280;4181;43.416;24.598;2022-07-29T12:08:13;99810.06;;;36.10;100.00
8286;BME280;4181;43.416;24.598;2022-07-29T12:10:41;99796.66;;;36.37;100.00
8286;BME280;4181;43.416;24.598;2022-07-29T12:13:07;99796.13;;;36.65;100.00
8286;BME280;4181;43.416;24.598;2022-07-29T12:15:33;99789.72;;;36.38;100.00
8286;BME280;4181;43.416;24.598;2022-07-29T12:18:09;99787.78;;;36.31;100.00
8286;BME280;4181;43.416;24.598;2022-07-29T12:20:36;99796.41;;;36.01;100.00
8286;BME280;4181;43.416;24.598;2022-07-29T12:23:05;99798.22;;;35.92;100.00
8286;BME280;4181;43.416;24.598;2022-07-29T12:25:33;99792.22;;;35.83;100.00
8286;BME280;4181;43.416;24.598;2022-07-29T12:28:02;99792.06;;;36.20;100.00
8286;BME280;4181;43.416;24.598;2022-07-29T12:30:45;99791.78;;;36.11;100.00
8286;BME280;4181;43.416;24.598;2022-07-29T12:33:13;99776.38;;;36.35;100.00
8286;BME280;4181;43.416;24.598;2022-07-29T12:35:40;99761.50;;;36.70;100.00
8286;BME280;4181;43.416;24.598;2022-07-29T12:38:06;99759.00;;;36.95;100.00
8286;BME280;4181;43.416;24.598;2022-07-29T12:40:34;99765.44;;;36.76;100.00
8286;BME280;4181;43.416;24.598;2022-07-29T12:43:17;99773.25;;;36.26;100.00
8286;BME280;4181;43.416;24.598;2022-07-29T12:45:47;99766.78;;;36.25;100.00
8286;BME280;4181;43.416;24.598;2022-07-29T12:48:13;99770.91;;;36.21;100.00
8286;BME280;4181;43.416;24.598;2022-07-29T12:50:57;99753.28;;;36.33;100.00
8286;BME280;4181;43.416;24.598;2022-07-29T12:53:24;99754.38;;;36.16;100.00
8286;BME280;4181;43.416;24.598;2022-07-29T12:55:51;99754.00;;;36.14;100.00
8286;BME280;4181;43.416;24.598;2022-07-29T12:58:35;99749.06;;;36.18;100.00
8286;BME280;4181;43.416;24.598;2022-07-29T13:01:12;99745.44;;;36.40;100.00
8286;BME280;4181;43.416;24.598;2022-07-29T13:09:09;99743.00;;;35.93;100.00
8286;BME280;4181;43.416;24.598;2022-07-29T13:14:01;99742.63;;;36.14;100.00
8286;BME280;4181;43.416;24.598;2022-07-29T13:16:27;99740.13;;;35.69;100.00
8286;BME280;4181;43.416;24.598;2022-07-29T13:19:10;99725.97;;;35.93;100.00
8286;BME280;4181;43.416;24.598;2022-07-29T13:21:37;99723.00;;;36.23;100.00
8286;BME280;4181;43.416;24.598;2022-07-29T13:24:05;99730.78;;;36.42;100.00
8286;BME280;4181;43.416;24.598;2022-07-29T13:26:31;99724.66;;;36.43;100.00
8286;BME280;4181;43.416;24.598;2022-07-29T13:28:57;99723.66;;;36.53;100.00
8286;BME280;4181;43.416;24.598;2022-07-29T13:31:22;99703.91;;;36.66;100.00
8286;BME280;4181;43.416;24.598;2022-07-29T13:34:03;99708.81;;;36.85;100.00
8286;BME280;4181;43.416;24.598;2022-07-29T13:36:29;99711.00;;;36.97;100.00
8286;BME280;4181;43.416;24.598;2022-07-29T13:38:54;99701.94;;;37.02;100.00
8286;BME280;4181;43.416;24.598;2022-07-29T13:41:20;99713.94;;;36.51;100.00
8286;BME280;4181;43.416;24.598;2022-07-29T13:43:45;99713.22;;;36.24;100.00
8286;BME280;4181;43.416;24.598;2022-07-29T13:46:11;99709.59;;;36.23;100.00
8286;BME280;4181;43.416;24.598;2022-07-29T13:48:36;99705.72;;;36.37;100.00